Biwabik, Minnesota
Current Conditions -  °F | °C
As of 10:32 AM on Monday 26 Jan 2015 (Local Time) from KEVM Reporting Station
Light Snow Light Snow  
Wind Chill: 25°   Ceiling: 800
Heat Index: 25°   Visibility: 4mi
Dew Point: 21°   Wind: 3mph
Humidity: 86%   Direction: 170°S
Pressure: 29.64"   Gusts: NA
Location:  47.53°N, 92.34°W
Report Text: KEVM 261632Z AUTO 17003KT 4SM -SN SCT003 BKN008 OVC018 M04/M06 A2964 RMK AO2 P0001
Loading
Personal Weather Stations






























Interactive Weather Map New forecast layout! Learn more

10-Day Weather Forecast

Advertisements
Track Severe Weather on mobile